ADDS TAF Data INFO
IDs: Format: Raw Decoded Include METARs

Data at: 1553 UTC 23 Feb 2018

KABY 231501Z 2315/2412 15007KT P6SM SCT040
  FM240900 17004KT P6SM SCT035